createdAt,value
2023-02-06T00:01:23.676Z,101488.94
2023-02-06T00:03:50.709Z,101501.53
2023-02-06T00:06:17.281Z,101490.59
2023-02-06T00:08:44.045Z,101490.06
2023-02-06T00:11:11.702Z,101474.03
2023-02-06T00:13:38.613Z,101472.91
2023-02-06T00:16:05.612Z,101472.38
2023-02-06T00:18:32.256Z,101471.53
2023-02-06T00:20:58.843Z,101464.22
2023-02-06T00:23:25.566Z,101463.09
2023-02-06T00:25:52.102Z,101468.72
2023-02-06T00:28:18.778Z,101465.34
2023-02-06T00:30:48.679Z,101458.03
2023-02-06T00:33:15.596Z,101465.03
2023-02-06T00:35:42.293Z,101470.94
2023-02-06T00:38:10.370Z,101465.34
2023-02-06T00:40:37.112Z,101462.78
2023-02-06T00:43:03.827Z,101467.28
2023-02-06T00:45:30.566Z,101459.72
2023-02-06T00:47:57.157Z,101461.94
2023-02-06T00:50:23.755Z,101469.50
2023-02-06T00:52:50.470Z,101465.88
2023-02-06T00:55:17.034Z,101464.16
2023-02-06T00:57:43.701Z,101468.09
2023-02-06T01:00:10.768Z,101466.97
2023-02-06T01:02:37.469Z,101459.69
2023-02-06T01:05:04.186Z,101459.09
2023-02-06T01:07:30.814Z,101462.50
2023-02-06T01:09:57.373Z,101464.44
2023-02-06T01:12:23.944Z,101452.66
2023-02-06T01:14:50.757Z,101451.75
2023-02-06T01:17:17.332Z,101453.16
2023-02-06T01:19:43.962Z,101460.19
2023-02-06T01:22:11.126Z,101454.81
2023-02-06T01:24:37.677Z,101462.41
2023-02-06T01:27:04.332Z,101453.97
2023-02-06T01:29:32.407Z,101453.97
2023-02-06T01:31:58.973Z,101443.91
2023-02-06T01:34:25.678Z,101443.59
2023-02-06T01:36:52.469Z,101443.06
2023-02-06T01:39:19.037Z,101445.56
2023-02-06T01:41:45.701Z,101443.31
2023-02-06T01:44:22.863Z,101461.81
2023-02-06T01:46:52.145Z,101453.13
2023-02-06T01:49:20.554Z,101450.06
2023-02-06T01:51:47.313Z,101446.13
2023-02-06T01:54:13.933Z,101447.78
2023-02-06T01:56:41.754Z,101451.72
2023-02-06T01:59:08.492Z,101453.97
2023-02-06T02:01:35.141Z,101451.19
2023-02-06T02:04:03.147Z,101444.69
2023-02-06T02:06:29.861Z,101439.38
2023-02-06T02:08:58.259Z,101433.78
2023-02-06T02:11:32.377Z,101443.28
2023-02-06T02:13:59.030Z,101437.13
2023-02-06T02:16:28.079Z,101425.34
2023-02-06T02:19:13.681Z,101424.19
2023-02-06T02:21:59.033Z,101437.09
2023-02-06T02:24:31.911Z,101437.63
2023-02-06T02:27:17.380Z,101440.44
2023-02-06T02:29:47.357Z,101435.38
2023-02-06T02:32:18.394Z,101432.03
2023-02-06T02:35:03.919Z,101437.63
2023-02-06T02:37:36.662Z,101427.25
2023-02-06T02:40:08.385Z,101416.56
2023-02-06T02:42:43.468Z,101415.44
2023-02-06T02:45:14.025Z,101414.59
2023-02-06T02:48:01.034Z,101402.84
2023-02-06T02:50:28.103Z,101413.75
2023-02-06T02:52:54.663Z,101425.22
2023-02-06T02:55:22.673Z,101408.69
2023-02-06T02:57:50.018Z,101406.44
2023-02-06T03:00:17.780Z,101387.66
2023-02-06T03:02:44.913Z,101408.38
2023-02-06T03:05:11.921Z,101415.63
2023-02-06T03:07:54.018Z,101402.78
2023-02-06T03:10:26.617Z,101384.31
2023-02-06T03:12:53.210Z,101397.47
2023-02-06T03:15:38.829Z,101372.75
2023-02-06T03:18:11.533Z,101387.06
2023-02-06T03:20:39.637Z,101401.38
2023-02-06T03:23:06.227Z,101402.16
2023-02-06T03:25:36.945Z,101389.28
2023-02-06T03:28:04.316Z,101384.81
2023-02-06T03:30:31.050Z,101387.59
2023-02-06T03:33:00.449Z,101380.31
2023-02-06T03:35:29.572Z,101388.16
2023-02-06T03:37:56.253Z,101375.81
2023-02-06T03:40:22.922Z,101387.56
2023-02-06T03:42:50.921Z,101386.72
2023-02-06T03:45:23.266Z,101408.28
2023-02-06T03:47:49.820Z,101391.50
2023-02-06T03:50:16.575Z,101402.38
2023-02-06T03:52:47.273Z,101390.91
2023-02-06T03:55:14.869Z,101400.97
2023-02-06T03:57:42.233Z,101383.88
2023-02-06T04:00:09.178Z,101376.31
2023-02-06T04:02:35.836Z,101377.13
2023-02-06T04:05:02.470Z,101375.72
2023-02-06T04:07:29.976Z,101373.44
2023-02-06T04:09:56.561Z,101374.00
2023-02-06T04:12:23.506Z,101367.56
2023-02-06T04:14:50.109Z,101357.78
2023-02-06T04:17:28.175Z,101352.47
2023-02-06T04:20:04.067Z,101339.84
2023-02-06T04:22:30.685Z,101339.00
2023-02-06T04:24:57.346Z,101328.34
2023-02-06T04:27:24.411Z,101326.38
2023-02-06T04:29:51.050Z,101319.66
2023-02-06T04:32:17.683Z,101312.09
2023-02-06T04:34:44.427Z,101324.47
2023-02-06T04:37:12.586Z,101289.44
2023-02-06T04:39:39.210Z,101303.75
2023-02-06T04:42:06.295Z,101305.66
2023-02-06T04:44:33.842Z,101302.56
2023-02-06T04:47:00.832Z,101286.06
2023-02-06T04:49:28.011Z,101266.41
2023-02-06T04:51:54.555Z,101273.72
2023-02-06T04:54:21.192Z,101268.13
2023-02-06T04:56:47.906Z,101264.19
2023-02-06T04:59:14.524Z,101263.66
2023-02-06T05:01:41.115Z,101265.88
2023-02-06T05:04:07.924Z,101269.78
2023-02-06T05:06:34.515Z,101264.44
2023-02-06T05:09:01.208Z,101266.69
2023-02-06T05:11:28.001Z,101269.78
2023-02-06T05:13:54.634Z,101271.47
2023-02-06T05:16:21.223Z,101264.78
2023-02-06T05:18:47.978Z,101269.78
2023-02-06T05:21:14.870Z,101271.47
2023-02-06T05:23:41.437Z,101277.63
2023-02-06T05:26:08.165Z,101292.19
2023-02-06T05:28:34.727Z,101283.81
2023-02-06T05:31:01.945Z,101277.94
2023-02-06T05:33:28.829Z,101284.38
2023-02-06T05:35:55.611Z,101284.38
2023-02-06T05:38:22.171Z,101283.25
2023-02-06T05:40:50.739Z,101288.84
2023-02-06T05:43:17.400Z,101283.25
2023-02-06T05:45:43.952Z,101275.97
2023-02-06T05:48:10.576Z,101273.19
2023-02-06T05:50:37.122Z,101261.97
2023-02-06T05:53:03.865Z,101259.72
2023-02-06T05:55:30.591Z,101253.00
2023-02-06T05:57:57.305Z,101263.91
2023-02-06T06:00:23.943Z,101260.53
2023-02-06T06:02:50.557Z,101259.69
2023-02-06T06:05:17.188Z,101243.97
2023-02-06T06:07:43.754Z,101238.38
2023-02-06T06:10:10.432Z,101263.84
2023-02-06T06:12:37.191Z,101268.63
2023-02-06T06:15:03.808Z,101261.91
2023-02-06T06:17:30.438Z,101271.06
2023-02-06T06:19:57.125Z,101286.19
2023-02-06T06:22:23.683Z,101282.56
2023-02-06T06:24:50.399Z,101275.31
2023-02-06T06:27:17.090Z,101282.63
2023-02-06T06:29:43.653Z,101286.78
2023-02-06T06:32:10.202Z,101293.75
2023-02-06T06:34:36.982Z,101292.34
2023-02-06T06:37:03.589Z,101305.19
2023-02-06T06:39:30.230Z,101294.50
2023-02-06T06:41:56.921Z,101294.78
2023-02-06T06:44:23.743Z,101288.63
2023-02-06T06:46:50.290Z,101282.19
2023-02-06T06:49:17.054Z,101303.72
2023-02-06T06:51:43.681Z,101310.16
2023-02-06T06:54:10.305Z,101312.41
2023-02-06T06:56:36.912Z,101298.66
2023-02-06T06:59:03.545Z,101309.78
2023-02-06T07:01:30.104Z,101302.53
2023-02-06T07:03:58.621Z,101315.38
2023-02-06T07:06:25.225Z,101293.78
2023-02-06T07:08:51.863Z,101291.81
2023-02-06T07:11:18.805Z,101304.59
2023-02-06T07:13:45.609Z,101283.28
2023-02-06T07:16:12.402Z,101251.38
2023-02-06T07:18:40.174Z,101253.31
2023-02-06T07:21:08.764Z,101243.53
2023-02-06T07:23:39.101Z,101241.00
2023-02-06T07:26:05.738Z,101226.19
2023-02-06T07:28:32.542Z,101230.97
2023-02-06T07:31:02.574Z,101246.94
2023-02-06T07:33:29.349Z,101229.38
2023-02-06T07:35:55.958Z,101223.22
2023-02-06T07:38:22.588Z,101225.22
2023-02-06T07:40:49.366Z,101210.38
2023-02-06T07:43:15.919Z,101220.16
2023-02-06T07:45:42.652Z,101215.09
2023-02-06T07:48:09.451Z,101215.06
2023-02-06T07:50:36.178Z,101234.94
2023-02-06T07:53:02.947Z,101229.66
2023-02-06T07:55:29.758Z,101223.53
2023-02-06T07:57:56.550Z,101232.53
2023-02-06T08:00:23.359Z,101228.34
2023-02-06T08:02:50.117Z,101240.09
2023-02-06T08:05:16.689Z,101246.56
2023-02-06T08:07:43.249Z,101248.31
2023-02-06T08:10:10.039Z,101251.53
2023-02-06T08:12:36.664Z,101242.38
2023-02-06T08:15:04.029Z,101249.16
2023-02-06T08:17:30.751Z,101263.22
2023-02-06T08:19:57.402Z,101251.78
2023-02-06T08:22:23.953Z,101255.16
2023-02-06T08:24:50.650Z,101263.56
2023-02-06T08:27:17.206Z,101264.13
2023-02-06T08:29:44.054Z,101266.88
2023-02-06T08:32:10.819Z,101263.13
2023-02-06T08:34:38.648Z,101257.16
2023-02-06T08:37:05.339Z,101245.56
2023-02-06T08:39:32.169Z,101251.63
2023-02-06T08:41:58.755Z,101250.91
2023-02-06T08:44:25.364Z,101234.97
2023-02-06T08:46:58.840Z,101233.34
2023-02-06T08:49:31.317Z,101239.00
2023-02-06T08:51:59.656Z,101229.13
2023-02-06T08:54:26.363Z,101246.28
2023-02-06T08:56:53.843Z,101239.72
2023-02-06T08:59:20.642Z,101237.94
2023-02-06T09:01:49.478Z,101227.72
2023-02-06T09:04:16.222Z,101228.31
2023-02-06T09:06:43.755Z,101227.19
2023-02-06T09:09:10.721Z,101231.56
2023-02-06T09:11:37.330Z,101228.03
2023-02-06T09:14:04.498Z,101218.56
2023-02-06T09:16:33.567Z,101207.25
2023-02-06T09:19:01.558Z,101209.91
2023-02-06T09:21:32.421Z,101207.00
2023-02-06T09:24:00.441Z,101202.63
2023-02-06T09:26:28.681Z,101190.47
2023-02-06T09:28:58.885Z,101189.78
2023-02-06T09:31:26.233Z,101204.41
2023-02-06T09:33:54.310Z,101205.72
2023-02-06T09:36:21.369Z,101199.59
2023-02-06T09:38:48.884Z,101204.31
2023-02-06T09:41:19.699Z,101203.88
2023-02-06T09:43:51.194Z,101187.34
2023-02-06T09:46:21.359Z,101188.31
2023-02-06T09:48:47.941Z,101180.44
2023-02-06T09:51:14.579Z,101191.25
2023-02-06T09:54:00.105Z,101190.78
2023-02-06T09:56:35.320Z,101193.31
2023-02-06T09:59:05.836Z,101180.22
2023-02-06T10:01:44.877Z,101182.44
2023-02-06T10:04:14.039Z,101186.34
2023-02-06T10:06:59.586Z,101173.28
2023-02-06T10:09:32.334Z,101164.28
2023-02-06T10:12:00.226Z,101156.44
2023-02-06T10:14:39.141Z,101170.81
2023-02-06T10:17:26.076Z,101166.81
2023-02-06T10:20:05.302Z,101178.78
2023-02-06T10:22:34.632Z,101176.88
2023-02-06T10:25:04.307Z,101169.69
2023-02-06T10:27:30.868Z,101168.44
2023-02-06T10:29:57.503Z,101168.25
2023-02-06T10:32:27.182Z,101159.56
2023-02-06T10:34:56.990Z,101167.19
2023-02-06T10:37:47.842Z,101163.44
2023-02-06T10:40:36.226Z,101162.44
2023-02-06T10:43:02.856Z,101164.69
2023-02-06T10:45:39.021Z,101159.94
2023-02-06T10:48:10.764Z,101156.56
2023-02-06T10:50:37.962Z,101158.84
2023-02-06T10:53:06.490Z,101154.97
2023-02-06T10:55:37.762Z,101160.53
2023-02-06T10:58:10.683Z,101154.75
2023-02-06T11:00:37.753Z,101153.19
2023-02-06T11:03:07.828Z,101142.59
2023-02-06T11:05:35.588Z,101143.13
2023-02-06T11:08:10.054Z,101142.13
2023-02-06T11:10:36.923Z,101136.28
2023-02-06T11:13:27.325Z,101140.59
2023-02-06T11:15:57.560Z,101136.00
2023-02-06T11:18:40.500Z,101130.94
2023-02-06T11:21:10.348Z,101126.78
2023-02-06T11:23:37.016Z,101137.81
2023-02-06T11:26:06.796Z,101117.03
2023-02-06T11:28:34.618Z,101133.59
2023-02-06T11:31:02.722Z,101136.78
2023-02-06T11:33:35.399Z,101117.53
2023-02-06T11:36:04.238Z,101116.22
2023-02-06T11:38:31.140Z,101103.03
2023-02-06T11:40:57.958Z,101099.31
2023-02-06T11:43:25.490Z,101091.50
2023-02-06T11:46:07.825Z,101071.69
2023-02-06T11:48:36.218Z,101073.81
2023-02-06T11:51:03.073Z,101050.28
2023-02-06T11:53:29.659Z,101053.22
2023-02-06T11:56:04.169Z,101059.03
2023-02-06T11:58:30.982Z,101056.91
2023-02-06T12:00:58.936Z,101044.91
2023-02-06T12:03:27.252Z,101044.44
2023-02-06T12:05:53.961Z,101026.75
2023-02-06T12:08:21.746Z,101030.66
2023-02-06T12:10:54.633Z,101015.69
2023-02-06T12:13:23.734Z,101004.66
2023-02-06T12:15:51.106Z,101001.81
2023-02-06T12:18:19.224Z,100989.81
2023-02-06T12:21:02.185Z,100985.75
2023-02-06T12:23:31.438Z,100977.38
2023-02-06T12:25:59.554Z,100965.84
2023-02-06T12:28:38.450Z,100970.25
2023-02-06T12:31:10.632Z,100966.66
2023-02-06T12:33:40.631Z,100960.22
2023-02-06T12:36:12.159Z,100948.44
2023-02-06T12:38:54.398Z,100944.72
2023-02-06T12:41:36.462Z,100943.31
2023-02-06T12:44:17.153Z,100931.88
2023-02-06T12:46:43.706Z,100931.50
2023-02-06T12:49:18.519Z,100923.69
2023-02-06T12:51:49.645Z,100920.31
2023-02-06T12:54:36.522Z,100905.09
2023-02-06T12:57:22.437Z,100907.69
2023-02-06T12:59:57.451Z,100903.44
2023-02-06T13:02:36.129Z,100898.13
2023-02-06T13:05:05.982Z,100900.47
2023-02-06T13:07:36.167Z,100889.16
2023-02-06T13:10:08.457Z,100889.63
2023-02-06T13:12:35.104Z,100880.72
2023-02-06T13:15:02.780Z,100869.28
2023-02-06T13:17:38.772Z,100874.63
2023-02-06T13:20:12.430Z,100868.91
2023-02-06T13:22:40.861Z,100865.19
2023-02-06T13:25:26.052Z,100853.66
2023-02-06T13:27:53.173Z,100850.78
2023-02-06T13:30:28.870Z,100848.22
2023-02-06T13:33:14.129Z,100842.44
2023-02-06T13:35:56.709Z,100837.78
2023-02-06T13:38:26.387Z,100838.38
2023-02-06T13:41:11.293Z,100833.69
2023-02-06T13:43:38.422Z,100834.00
2023-02-06T13:46:12.738Z,100820.56
2023-02-06T13:48:58.213Z,100815.00
2023-02-06T13:51:43.827Z,100821.91
2023-02-06T13:54:21.773Z,100810.16
2023-02-06T13:56:54.576Z,100801.94
2023-02-06T13:59:23.264Z,100808.59
2023-02-06T14:01:49.845Z,100796.97
2023-02-06T14:04:18.200Z,100790.09
2023-02-06T14:06:48.385Z,100779.78
2023-02-06T14:09:44.467Z,100783.38
2023-02-06T14:12:39.006Z,100784.44
2023-02-06T14:15:24.849Z,100771.09
2023-02-06T14:18:03.876Z,100757.88
2023-02-06T14:20:37.524Z,100756.00
2023-02-06T14:23:06.064Z,100758.06
2023-02-06T14:25:35.993Z,100747.41
2023-02-06T14:28:23.244Z,100751.94
2023-02-06T14:30:59.116Z,100741.13
2023-02-06T14:33:34.914Z,100737.00
2023-02-06T14:36:04.588Z,100740.47
2023-02-06T14:38:34.488Z,100731.47
2023-02-06T14:41:03.333Z,100731.81
2023-02-06T14:43:30.903Z,100738.59
2023-02-06T14:46:06.716Z,100729.28
2023-02-06T14:48:40.743Z,100724.75
2023-02-06T14:51:07.634Z,100724.41
2023-02-06T14:53:38.193Z,100720.91
2023-02-06T14:56:23.633Z,100723.91
2023-02-06T14:58:51.445Z,100720.38
2023-02-06T15:01:18.021Z,100721.69
2023-02-06T15:03:45.609Z,100719.84
2023-02-06T15:06:13.187Z,100723.31
2023-02-06T15:08:47.154Z,100716.31
2023-02-06T15:11:18.936Z,100716.97
2023-02-06T15:13:49.124Z,100709.50
2023-02-06T15:16:15.689Z,100710.97
2023-02-06T15:18:42.249Z,100705.97
2023-02-06T15:21:09.599Z,100695.31
2023-02-06T15:23:39.227Z,100699.31
2023-02-06T15:26:05.953Z,100699.13
2023-02-06T15:28:33.268Z,100701.78
2023-02-06T15:31:00.304Z,100699.59
2023-02-06T15:33:30.042Z,100699.09
2023-02-06T15:35:57.365Z,100692.91
2023-02-06T15:38:24.499Z,100695.22
2023-02-06T15:40:53.560Z,100687.38
2023-02-06T15:43:21.301Z,100685.22
2023-02-06T15:45:48.503Z,100684.72
2023-02-06T15:48:18.333Z,100685.91
2023-02-06T15:51:05.286Z,100689.84
2023-02-06T15:53:36.015Z,100693.00
2023-02-06T15:56:02.956Z,100697.00
2023-02-06T15:58:30.206Z,100704.97
2023-02-06T16:00:57.111Z,100698.78
2023-02-06T16:03:24.705Z,100703.13
2023-02-06T16:05:55.474Z,100698.13
2023-02-06T16:08:30.207Z,100703.25
2023-02-06T16:11:01.460Z,100703.88
2023-02-06T16:13:28.409Z,100703.38
2023-02-06T16:16:02.459Z,100703.22
2023-02-06T16:18:38.817Z,100686.56
2023-02-06T16:21:12.151Z,100697.16
2023-02-06T16:24:03.392Z,100693.31
2023-02-06T16:26:30.830Z,100682.19
2023-02-06T16:29:09.662Z,100693.28
2023-02-06T16:31:37.488Z,100687.94
2023-02-06T16:34:18.980Z,100710.03
2023-02-06T16:36:45.728Z,100691.22
2023-02-06T16:39:12.389Z,100701.66
2023-02-06T16:41:39.386Z,100691.22
2023-02-06T16:44:13.190Z,100711.28
2023-02-06T16:46:39.831Z,100707.94
2023-02-06T16:49:06.972Z,100704.63
2023-02-06T16:51:33.625Z,100702.13
2023-02-06T16:54:00.338Z,100705.28
2023-02-06T16:56:26.944Z,100701.63
2023-02-06T16:58:53.566Z,100699.09
2023-02-06T17:01:25.504Z,100700.56
2023-02-06T17:03:52.649Z,100700.06
2023-02-06T17:06:20.869Z,100712.81
2023-02-06T17:08:48.191Z,100711.16
2023-02-06T17:11:14.889Z,100707.00
2023-02-06T17:13:41.604Z,100705.97
2023-02-06T17:16:10.351Z,100711.06
2023-02-06T17:18:36.911Z,100712.56
2023-02-06T17:21:03.686Z,100715.16
2023-02-06T17:23:30.258Z,100711.94
2023-02-06T17:25:56.894Z,100704.44
2023-02-06T17:28:23.526Z,100723.97
2023-02-06T17:30:51.176Z,100718.44
2023-02-06T17:33:17.900Z,100718.91
2023-02-06T17:35:44.709Z,100717.00
2023-02-06T17:38:11.970Z,100713.16
2023-02-06T17:40:40.241Z,100708.78
2023-02-06T17:43:07.370Z,100718.19
2023-02-06T17:45:35.086Z,100715.66
2023-02-06T17:48:01.832Z,100704.19
2023-02-06T17:50:28.610Z,100705.69
2023-02-06T17:52:56.262Z,100705.47
2023-02-06T17:55:23.325Z,100713.19
2023-02-06T17:57:50.145Z,100704.84
2023-02-06T18:00:17.291Z,100705.78
2023-02-06T18:02:43.996Z,100707.25
2023-02-06T18:05:10.985Z,100710.69
2023-02-06T18:07:37.938Z,100717.81
2023-02-06T18:10:04.908Z,100711.97
2023-02-06T18:12:31.539Z,100714.25
2023-02-06T18:14:58.170Z,100714.84
2023-02-06T18:17:24.900Z,100712.66
2023-02-06T18:19:52.371Z,100716.09
2023-02-06T18:22:19.562Z,100720.06
2023-02-06T18:24:46.521Z,100719.03
2023-02-06T18:27:13.211Z,100718.00
2023-02-06T18:29:50.444Z,100718.63
2023-02-06T18:32:17.764Z,100724.03
2023-02-06T18:34:44.348Z,100729.91
2023-02-06T18:37:11.006Z,100718.16
2023-02-06T18:39:37.844Z,100733.34
2023-02-06T18:42:23.097Z,100735.97
2023-02-06T18:44:49.870Z,100742.19
2023-02-06T18:47:16.750Z,100737.22
2023-02-06T18:49:43.538Z,100738.66
2023-02-06T18:52:10.340Z,100737.91
2023-02-06T18:54:36.976Z,100741.06
2023-02-06T18:57:03.812Z,100739.13
2023-02-06T18:59:30.832Z,100742.28
2023-02-06T19:01:57.413Z,100742.88
2023-02-06T19:04:24.117Z,100744.34
2023-02-06T19:06:50.757Z,100742.44
2023-02-06T19:09:19.921Z,100746.41
2023-02-06T19:11:46.765Z,100753.16
2023-02-06T19:14:15.290Z,100748.69
2023-02-06T19:16:44.683Z,100747.03
2023-02-06T19:19:12.121Z,100743.66
2023-02-06T19:21:38.714Z,100750.44
2023-02-06T19:24:05.938Z,100746.59
2023-02-06T19:26:33.324Z,100735.94
2023-02-06T19:29:00.031Z,100743.84
2023-02-06T19:31:26.959Z,100737.16
2023-02-06T19:33:54.530Z,100749.84
2023-02-06T19:36:21.320Z,100753.00
2023-02-06T19:38:48.301Z,100764.53
2023-02-06T19:41:16.090Z,100747.97
2023-02-06T19:43:42.814Z,100740.69
2023-02-06T19:46:14.316Z,100755.88
2023-02-06T19:48:44.170Z,100754.75
2023-02-06T19:51:11.560Z,100745.75
2023-02-06T19:53:45.331Z,100763.47
2023-02-06T19:56:12.396Z,100754.19
2023-02-06T19:58:38.968Z,100753.66
2023-02-06T20:01:09.307Z,100753.66
2023-02-06T20:03:36.095Z,100764.63
2023-02-06T20:06:06.585Z,100763.25
2023-02-06T20:08:33.594Z,100761.59
2023-02-06T20:11:04.187Z,100756.25
2023-02-06T20:13:30.746Z,100760.22
2023-02-06T20:16:03.515Z,100771.22
2023-02-06T20:18:36.257Z,100757.56
2023-02-06T20:21:03.089Z,100766.31
2023-02-06T20:23:30.060Z,100761.56
2023-02-06T20:25:56.743Z,100761.88
2023-02-06T20:28:23.717Z,100747.84
2023-02-06T20:30:50.460Z,100739.09
2023-02-06T20:33:17.547Z,100733.22
2023-02-06T20:35:45.842Z,100753.00
2023-02-06T20:38:12.611Z,100733.84
2023-02-06T20:40:43.783Z,100733.00
2023-02-06T20:43:10.688Z,100728.81
2023-02-06T20:45:37.241Z,100760.09
2023-02-06T20:48:03.901Z,100743.00
2023-02-06T20:50:31.234Z,100743.56
2023-02-06T20:52:57.854Z,100756.78
2023-02-06T20:55:24.407Z,100753.97
2023-02-06T20:57:51.144Z,100739.59
2023-02-06T21:00:18.228Z,100750.56
2023-02-06T21:02:44.877Z,100756.47
2023-02-06T21:05:11.589Z,100750.84
2023-02-06T21:07:39.221Z,100716.13
2023-02-06T21:10:05.946Z,100749.88
2023-02-06T21:12:32.785Z,100744.88
2023-02-06T21:14:59.393Z,100757.03
2023-02-06T21:17:25.944Z,100747.75
2023-02-06T21:19:52.562Z,100762.31
2023-02-06T21:22:19.116Z,100747.16
2023-02-06T21:24:45.733Z,100761.22
2023-02-06T21:27:12.353Z,100758.41
2023-02-06T21:29:38.925Z,100756.44
2023-02-06T21:32:13.600Z,100771.63
2023-02-06T21:34:40.847Z,100765.69
2023-02-06T21:37:07.629Z,100767.94
2023-02-06T21:39:34.259Z,100776.69
2023-02-06T21:42:01.762Z,100767.72
2023-02-06T21:44:29.110Z,100786.03
2023-02-06T21:46:56.277Z,100780.19
2023-02-06T21:49:23.468Z,100780.19
2023-02-06T21:51:53.640Z,100778.19
2023-02-06T21:54:20.296Z,100792.25
2023-02-06T21:56:46.915Z,100788.88
2023-02-06T21:59:13.723Z,100778.00
2023-02-06T22:01:41.484Z,100777.19
2023-02-06T22:04:08.678Z,100799.66
2023-02-06T22:06:38.550Z,100787.84
2023-02-06T22:09:07.840Z,100793.78
2023-02-06T22:11:38.409Z,100798.56
2023-02-06T22:14:05.978Z,100788.53
2023-02-06T22:16:32.542Z,100805.19
2023-02-06T22:19:00.925Z,100798.22
2023-02-06T22:21:28.308Z,100808.97
2023-02-06T22:23:58.767Z,100806.66
2023-02-06T22:26:25.534Z,100805.59
2023-02-06T22:28:52.111Z,100818.00
2023-02-06T22:31:19.834Z,100811.88
2023-02-06T22:33:46.657Z,100801.16
2023-02-06T22:36:14.113Z,100804.31
2023-02-06T22:38:40.889Z,100804.63
2023-02-06T22:41:08.357Z,100808.56
2023-02-06T22:43:35.922Z,100817.84
2023-02-06T22:46:02.601Z,100778.56
2023-02-06T22:48:29.600Z,100814.53
2023-02-06T22:50:56.306Z,100797.06
2023-02-06T22:53:32.148Z,100811.97
2023-02-06T22:56:17.528Z,100799.34
2023-02-06T22:58:44.307Z,100796.53
2023-02-06T23:01:10.956Z,100794.56
2023-02-06T23:03:37.750Z,100788.97
2023-02-06T23:06:04.827Z,100783.69
2023-02-06T23:08:31.403Z,100784.00
2023-02-06T23:10:57.957Z,100811.81
2023-02-06T23:13:24.915Z,100776.75
2023-02-06T23:15:51.655Z,100778.16
2023-02-06T23:18:18.303Z,100774.28
2023-02-06T23:20:45.097Z,100764.47
2023-02-06T23:23:11.670Z,100769.59
2023-02-06T23:25:44.487Z,100787.84
2023-02-06T23:28:11.248Z,100748.31
2023-02-06T23:30:37.823Z,100771.03
2023-02-06T23:33:04.560Z,100772.41
2023-02-06T23:35:34.892Z,100762.84
2023-02-06T23:38:01.670Z,100778.56
2023-02-06T23:40:28.380Z,100764.56
2023-02-06T23:42:55.483Z,100767.03
2023-02-06T23:45:22.147Z,100766.22
2023-02-06T23:47:48.776Z,100760.91
2023-02-06T23:50:15.615Z,100761.19
2023-02-06T23:52:42.153Z,100779.16
2023-02-06T23:55:08.818Z,100772.72
2023-02-06T23:57:36.090Z,100781.72
